createdAt,value
2022-08-01T18:20:05.253Z,80.29
2022-08-01T18:25:08.842Z,80.86
2022-08-01T18:30:11.669Z,80.77
2022-08-01T18:35:14.608Z,81.09
2022-08-01T18:40:22.759Z,81.18
2022-08-01T18:45:25.421Z,81.61
2022-08-01T18:50:27.808Z,81.68
2022-08-01T19:09:40.754Z,81.73
2022-08-01T19:14:46.066Z,82.27
2022-08-01T19:20:08.159Z,82.03
2022-08-01T19:25:10.259Z,81.67
2022-08-01T19:30:17.151Z,81.64
2022-08-01T19:35:21.948Z,81.80
2022-08-01T19:40:27.462Z,83.55
2022-08-01T19:45:33.293Z,83.78
2022-08-01T19:50:40.553Z,83.56
2022-08-01T19:55:43.507Z,82.67
2022-08-01T20:00:53.338Z,83.93
2022-08-01T20:05:56.507Z,84.84
2022-08-01T20:11:05.432Z,85.17
2022-08-01T20:16:19.431Z,85.17
2022-08-01T20:21:26.610Z,85.26
2022-08-01T20:26:33.927Z,84.66
2022-08-01T20:31:44.115Z,84.74
2022-08-01T20:36:48.085Z,84.34
2022-08-01T20:41:59.693Z,83.99
2022-08-01T20:47:13.639Z,85.19
2022-08-01T20:52:27.389Z,85.35
2022-08-01T20:57:29.108Z,83.90
2022-08-01T21:03:01.115Z,84.19
2022-08-01T21:08:12.997Z,84.52
2022-08-01T21:13:21.334Z,84.51
2022-08-01T21:18:33.785Z,83.99
2022-08-01T21:23:50.275Z,83.52
2022-08-01T21:28:55.257Z,83.25
2022-08-01T21:34:02.820Z,84.24
2022-08-01T21:39:07.015Z,84.14
2022-08-01T21:44:14.288Z,83.43
2022-08-01T21:49:16.732Z,83.91
2022-08-01T21:54:38.334Z,84.20
2022-08-01T21:59:46.593Z,84.54
2022-08-01T22:04:58.981Z,85.39
2022-08-01T22:10:05.034Z,85.66
2022-08-01T22:15:08.374Z,85.17
2022-08-01T22:20:12.781Z,84.78
2022-08-01T22:25:16.356Z,85.27
2022-08-01T22:30:18.737Z,85.83
2022-08-01T22:35:21.202Z,85.84
2022-08-01T22:40:23.234Z,85.94
2022-08-01T22:45:41.721Z,86.55
2022-08-01T22:50:46.345Z,87.04
2022-08-01T22:55:59.007Z,86.41
2022-08-01T23:01:02.396Z,85.99
2022-08-01T23:06:22.226Z,86.14
2022-08-01T23:11:24.440Z,86.59
2022-08-01T23:16:28.740Z,86.35
2022-08-01T23:21:31.734Z,86.64
2022-08-01T23:26:35.958Z,86.64
2022-08-01T23:31:50.929Z,87.45
2022-08-01T23:37:00.005Z,86.59
2022-08-01T23:42:05.412Z,86.46
2022-08-01T23:47:10.740Z,86.15
2022-08-01T23:52:20.589Z,86.44
2022-08-01T23:57:22.944Z,86.72
